createdAt,value
2018-04-02T00:00:57.956Z,37.40
2018-04-02T00:02:19.201Z,34.10
2018-04-02T00:03:19.822Z,39.20
2018-04-02T00:04:40.743Z,36.40
2018-04-02T00:05:41.023Z,34.80
2018-04-02T00:06:40.695Z,40.80
2018-04-02T00:07:41.293Z,35.70
2018-04-02T00:08:40.504Z,35.50
2018-04-02T00:09:41.391Z,34.20
2018-04-02T00:10:41.072Z,35.40
2018-04-02T00:11:41.082Z,35.10
2018-04-02T00:12:41.622Z,32.00
2018-04-02T00:13:42.891Z,35.50
2018-04-02T00:14:42.695Z,31.80
2018-04-02T00:15:43.998Z,30.70
2018-04-02T00:16:42.238Z,32.70
2018-04-02T00:17:43.713Z,33.40
2018-04-02T00:18:43.677Z,32.30
2018-04-02T00:19:42.160Z,33.40
2018-04-02T00:20:41.622Z,32.60
2018-04-02T00:21:41.574Z,33.50
2018-04-02T00:22:43.828Z,30.20
2018-04-02T00:23:43.815Z,31.20
2018-04-02T00:24:45.649Z,31.50
2018-04-02T00:25:41.775Z,59.10
2018-04-02T00:26:44.944Z,177.70
2018-04-02T00:27:44.428Z,61.70
2018-04-02T00:28:44.145Z,43.40
2018-04-02T00:29:43.298Z,36.70
2018-04-02T00:30:43.247Z,32.70
2018-04-02T00:31:43.712Z,35.20
2018-04-02T00:32:43.996Z,34.70
2018-04-02T00:33:43.320Z,34.20
2018-04-02T00:34:43.879Z,35.00
2018-04-02T00:36:05.729Z,34.40
2018-04-02T00:37:07.199Z,32.40
2018-04-02T00:38:05.466Z,37.10
2018-04-02T00:39:04.704Z,31.60
2018-04-02T00:40:04.259Z,34.20
2018-04-02T00:41:04.036Z,34.40
2018-04-02T00:42:08.142Z,32.40
2018-04-02T00:43:07.194Z,29.70
2018-04-02T00:44:05.105Z,30.50
2018-04-02T00:45:05.166Z,31.90
2018-04-02T00:46:06.353Z,33.00
2018-04-02T00:47:08.482Z,27.40
2018-04-02T00:48:07.123Z,32.60
2018-04-02T00:49:07.107Z,30.00
2018-04-02T00:50:05.237Z,30.20
2018-04-02T00:51:05.380Z,32.00
2018-04-02T00:52:07.438Z,33.10
2018-04-02T00:53:30.726Z,28.90
2018-04-02T00:54:29.445Z,29.40
2018-04-02T00:55:29.671Z,28.90
2018-04-02T00:56:29.497Z,28.50
2018-04-02T00:57:31.437Z,30.60
2018-04-02T00:58:30.650Z,27.10
2018-04-02T00:59:29.766Z,30.50
2018-04-02T01:00:30.364Z,31.60
2018-04-02T01:01:29.299Z,30.60
2018-04-02T01:02:28.056Z,26.20
2018-04-02T01:03:52.865Z,25.50
2018-04-02T01:04:53.837Z,32.60
2018-04-02T01:06:18.640Z,30.80
2018-04-02T01:07:21.970Z,33.70
2018-04-02T01:08:23.733Z,31.60
2018-04-02T01:09:19.420Z,31.30
2018-04-02T01:10:17.225Z,28.00
2018-04-02T01:11:17.672Z,32.20
2018-04-02T01:12:17.176Z,28.00
2018-04-02T01:13:16.057Z,30.40
2018-04-02T01:14:18.032Z,30.80
2018-04-02T01:15:18.527Z,33.80
2018-04-02T01:16:17.995Z,30.00
2018-04-02T01:17:18.876Z,28.40
2018-04-02T01:18:18.621Z,31.20
2018-04-02T01:19:18.017Z,27.40
2018-04-02T01:20:18.752Z,28.40
2018-04-02T01:21:18.198Z,24.00
2018-04-02T01:22:19.009Z,23.90
2018-04-02T01:23:19.626Z,26.00
2018-04-02T01:24:42.629Z,26.00
2018-04-02T01:25:40.802Z,25.60
2018-04-02T01:26:41.737Z,21.70
2018-04-02T01:27:41.224Z,27.20
2018-04-02T01:28:41.795Z,25.40
2018-04-02T01:29:42.948Z,25.90
2018-04-02T01:30:42.533Z,28.20
2018-04-02T01:31:42.007Z,27.30
2018-04-02T01:32:41.780Z,27.50
2018-04-02T01:33:41.583Z,25.70
2018-04-02T01:34:39.179Z,26.40
2018-04-02T01:35:41.550Z,26.10
2018-04-02T01:36:42.650Z,29.80
2018-04-02T01:37:42.311Z,26.80
2018-04-02T01:39:05.606Z,27.80
2018-04-02T01:40:03.735Z,26.70
2018-04-02T01:41:06.326Z,24.20
2018-04-02T01:42:06.085Z,26.20
2018-04-02T01:43:28.865Z,25.60
2018-04-02T01:44:29.497Z,28.70
2018-04-02T01:46:15.402Z,28.20
2018-04-02T01:47:14.254Z,25.70
2018-04-02T01:48:15.609Z,26.10
2018-04-02T01:49:16.267Z,27.20
2018-04-02T01:50:38.961Z,26.90
2018-04-02T01:51:43.078Z,29.30
2018-04-02T01:52:43.528Z,26.40
2018-04-02T01:53:42.018Z,26.30
2018-04-02T01:54:41.565Z,24.40
2018-04-02T01:55:40.692Z,26.30
2018-04-02T01:56:43.907Z,25.70
2018-04-02T01:57:41.001Z,26.30
2018-04-02T01:58:41.347Z,27.80
2018-04-02T01:59:40.477Z,25.00
2018-04-02T02:00:40.824Z,24.90
2018-04-02T02:01:41.585Z,24.30
2018-04-02T02:02:42.659Z,26.70
2018-04-02T02:03:41.496Z,27.50
2018-04-02T02:04:42.456Z,29.90
2018-04-02T02:05:42.993Z,28.20
2018-04-02T02:06:40.080Z,347.20
2018-04-02T02:07:44.118Z,111.20
2018-04-02T02:08:40.590Z,98.30
2018-04-02T02:09:41.469Z,78.00
2018-04-02T02:10:40.137Z,51.50
2018-04-02T02:11:41.579Z,68.10
2018-04-02T02:12:42.395Z,48.80
2018-04-02T02:13:41.906Z,32.60
2018-04-02T02:14:41.262Z,34.50
2018-04-02T02:15:41.040Z,27.00
2018-04-02T02:16:41.559Z,29.10
2018-04-02T02:17:39.293Z,29.10
2018-04-02T02:18:41.098Z,30.60
2018-04-02T02:19:39.319Z,26.60
2018-04-02T02:20:42.178Z,30.30
2018-04-02T02:21:41.067Z,31.70
2018-04-02T02:22:40.021Z,28.20
2018-04-02T02:23:41.846Z,27.40
2018-04-02T02:24:40.711Z,29.40
2018-04-02T02:25:41.014Z,30.70
2018-04-02T02:26:40.403Z,28.90
2018-04-02T02:27:40.630Z,31.60
2018-04-02T02:28:41.484Z,27.90
2018-04-02T02:30:04.217Z,28.10
2018-04-02T02:31:05.308Z,29.60
2018-04-02T02:32:05.497Z,32.30
2018-04-02T02:33:05.821Z,29.40
2018-04-02T02:34:05.474Z,29.40
2018-04-02T02:35:06.184Z,30.40
2018-04-02T02:36:05.292Z,33.10
2018-04-02T02:37:06.075Z,32.60
2018-04-02T02:38:06.005Z,32.10
2018-04-02T02:39:03.956Z,30.70
2018-04-02T02:40:06.107Z,28.70
2018-04-02T02:41:05.120Z,31.50
2018-04-02T02:42:26.976Z,29.40
2018-04-02T02:43:28.582Z,33.30
2018-04-02T02:44:26.677Z,30.10
2018-04-02T02:45:29.220Z,31.90
2018-04-02T02:46:27.775Z,32.90
2018-04-02T02:47:27.628Z,37.60
2018-04-02T02:48:50.947Z,33.20
2018-04-02T02:49:49.646Z,31.30
2018-04-02T02:50:51.857Z,35.70
2018-04-02T02:51:51.230Z,34.90
2018-04-02T02:53:12.375Z,33.10
2018-04-02T02:54:12.866Z,32.70
2018-04-02T02:55:11.969Z,32.60
2018-04-02T02:56:37.854Z,32.90
2018-04-02T02:57:36.829Z,34.20
2018-04-02T02:58:37.992Z,37.20
2018-04-02T02:59:36.766Z,34.50
2018-04-02T03:01:01.044Z,39.80
2018-04-02T03:02:03.508Z,35.10
2018-04-02T03:03:23.494Z,35.00
2018-04-02T03:04:24.631Z,33.80
2018-04-02T03:05:24.651Z,36.40
2018-04-02T03:06:25.398Z,37.40
2018-04-02T03:07:24.631Z,42.60
2018-04-02T03:08:24.624Z,39.00
2018-04-02T03:09:24.152Z,38.20
2018-04-02T03:10:23.870Z,36.90
2018-04-02T03:11:23.767Z,38.60
2018-04-02T03:12:24.257Z,35.10
2018-04-02T03:13:43.372Z,39.60
2018-04-02T03:14:44.230Z,37.20
2018-04-02T03:16:04.443Z,39.40
2018-04-02T03:17:05.033Z,37.20
2018-04-02T03:18:05.397Z,38.40
2018-04-02T03:19:24.986Z,39.80
2018-04-02T03:20:25.345Z,39.60
2018-04-02T03:21:26.320Z,37.20
2018-04-02T03:22:25.655Z,36.20
2018-04-02T03:23:47.156Z,40.30
2018-04-02T03:24:47.335Z,39.70
2018-04-02T03:25:47.149Z,35.60
2018-04-02T03:26:47.892Z,34.20
2018-04-02T03:27:47.549Z,33.60
2018-04-02T03:28:46.984Z,38.30
2018-04-02T03:29:47.728Z,39.70
2018-04-02T03:31:07.838Z,33.20
2018-04-02T03:32:08.418Z,36.10
2018-04-02T03:33:10.966Z,33.90
2018-04-02T03:34:08.284Z,34.20
2018-04-02T03:35:07.641Z,36.80
2018-04-02T03:36:07.756Z,36.60
2018-04-02T03:37:08.259Z,34.40
2018-04-02T03:38:28.985Z,37.30
2018-04-02T03:39:29.784Z,38.80
2018-04-02T03:40:29.335Z,36.00
2018-04-02T03:41:28.791Z,37.90
2018-04-02T03:42:29.083Z,36.70
2018-04-02T03:43:29.569Z,39.00
2018-04-02T03:44:28.819Z,34.80
2018-04-02T03:45:29.139Z,35.30
2018-04-02T03:46:50.675Z,34.50
2018-04-02T03:47:50.930Z,34.70
2018-04-02T03:48:51.718Z,34.10
2018-04-02T03:49:51.082Z,37.40
2018-04-02T03:50:51.710Z,33.10
2018-04-02T03:51:51.174Z,34.50
2018-04-02T03:52:50.918Z,35.40
2018-04-02T03:54:32.942Z,36.20
2018-04-02T03:55:33.573Z,35.60
2018-04-02T03:56:33.360Z,40.30
2018-04-02T03:57:34.177Z,34.90
2018-04-02T03:58:33.828Z,35.90
2018-04-02T03:59:33.132Z,35.80
2018-04-02T04:00:33.650Z,36.10
2018-04-02T04:01:32.848Z,34.90
2018-04-02T04:02:33.149Z,34.80
2018-04-02T04:03:33.500Z,35.50
2018-04-02T04:04:55.312Z,35.00
2018-04-02T04:05:55.699Z,33.90
2018-04-02T04:06:56.352Z,36.00
2018-04-02T04:07:56.265Z,36.00
2018-04-02T04:09:17.914Z,35.00
2018-04-02T04:10:17.766Z,33.90
2018-04-02T04:11:17.341Z,34.20
2018-04-02T04:12:16.887Z,32.90
2018-04-02T04:13:17.542Z,36.60
2018-04-02T04:14:16.958Z,32.90
2018-04-02T04:15:17.419Z,34.70
2018-04-02T04:16:16.776Z,36.00
2018-04-02T04:17:17.138Z,35.00
2018-04-02T04:18:16.940Z,33.70
2018-04-02T04:19:17.249Z,35.40
2018-04-02T04:20:17.838Z,33.70
2018-04-02T04:21:17.206Z,33.80
2018-04-02T04:22:37.251Z,33.20
2018-04-02T04:23:37.841Z,34.80
2018-04-02T04:24:59.563Z,32.70
2018-04-02T04:26:00.366Z,31.50
2018-04-02T04:26:59.997Z,36.20
2018-04-02T04:28:00.357Z,32.00
2018-04-02T04:29:00.187Z,32.60
2018-04-02T04:30:00.399Z,32.50
2018-04-02T04:31:00.035Z,32.20
2018-04-02T04:32:00.243Z,33.60
2018-04-02T04:33:00.106Z,34.90
2018-04-02T04:35:01.284Z,35.00
2018-04-02T04:36:02.167Z,36.10
2018-04-02T04:37:01.500Z,35.10
2018-04-02T04:38:22.827Z,38.80
2018-04-02T04:39:23.638Z,34.50
2018-04-02T04:40:23.096Z,36.80
2018-04-02T04:41:22.667Z,33.30
2018-04-02T04:42:43.558Z,36.40
2018-04-02T04:44:05.218Z,39.70
2018-04-02T04:45:06.021Z,37.20
2018-04-02T04:46:05.456Z,41.90
2018-04-02T04:47:06.286Z,34.60
2018-04-02T04:48:05.897Z,34.60
2018-04-02T04:49:06.527Z,37.60
2018-04-02T04:50:06.266Z,37.30
2018-04-02T04:51:05.875Z,36.00
2018-04-02T04:52:05.446Z,34.10
2018-04-02T04:53:06.422Z,35.50
2018-04-02T04:54:06.316Z,34.50
2018-04-02T04:55:05.713Z,35.90
2018-04-02T04:56:27.855Z,37.30
2018-04-02T04:57:28.098Z,34.30
2018-04-02T04:58:27.703Z,39.40
2018-04-02T04:59:49.676Z,36.00
2018-04-02T05:00:50.455Z,36.60
2018-04-02T05:01:50.060Z,38.50
2018-04-02T05:02:50.443Z,35.90
2018-04-02T05:03:50.175Z,36.70
2018-04-02T05:04:49.577Z,36.80
2018-04-02T05:05:50.067Z,35.40
2018-04-02T05:06:49.858Z,40.30
2018-04-02T05:07:50.181Z,34.60
2018-04-02T05:08:49.586Z,36.60
2018-04-02T05:09:50.324Z,37.00
2018-04-02T05:10:49.565Z,41.50
2018-04-02T05:11:50.357Z,36.20
2018-04-02T05:12:49.691Z,35.20
2018-04-02T05:13:50.415Z,35.90
2018-04-02T05:15:10.610Z,37.40
2018-04-02T05:16:11.376Z,33.20
2018-04-02T05:17:11.000Z,37.20
2018-04-02T05:18:11.254Z,37.10
2018-04-02T05:19:10.428Z,34.70
2018-04-02T05:20:11.461Z,34.60
2018-04-02T05:21:12.939Z,33.90
2018-04-02T05:22:37.064Z,36.20
2018-04-02T05:23:35.412Z,38.60
2018-04-02T05:24:34.376Z,33.70
2018-04-02T05:25:34.081Z,38.20
2018-04-02T05:26:33.677Z,36.50
2018-04-02T05:27:55.934Z,36.80
2018-04-02T05:28:56.296Z,39.50
2018-04-02T05:29:55.797Z,39.80
2018-04-02T05:30:56.271Z,40.10
2018-04-02T05:31:56.689Z,36.90
2018-04-02T05:32:56.658Z,37.00
2018-04-02T05:33:55.959Z,37.00
2018-04-02T05:34:57.222Z,34.20
2018-04-02T05:35:55.632Z,36.30
2018-04-02T05:36:56.032Z,37.00
2018-04-02T05:37:57.146Z,36.00
2018-04-02T05:38:56.567Z,34.50
2018-04-02T05:39:56.463Z,35.50
2018-04-02T05:40:55.946Z,36.30
2018-04-02T05:42:18.660Z,40.80
2018-04-02T05:43:19.380Z,34.10
2018-04-02T05:44:18.816Z,37.50
2018-04-02T05:45:19.013Z,36.90
2018-04-02T05:46:18.561Z,39.80
2018-04-02T05:47:19.089Z,35.70
2018-04-02T05:48:18.343Z,40.20
2018-04-02T05:49:18.819Z,39.40
2018-04-02T05:50:18.751Z,33.30
2018-04-02T05:51:40.268Z,36.00
2018-04-02T05:52:41.004Z,36.80
2018-04-02T05:53:40.925Z,37.70
2018-04-02T05:54:40.697Z,36.90
2018-04-02T05:55:40.669Z,39.10
2018-04-02T05:57:01.582Z,43.00
2018-04-02T05:58:01.935Z,35.30
2018-04-02T05:59:44.024Z,36.90
2018-04-02T06:00:44.792Z,36.80
2018-04-02T06:01:44.188Z,36.90
2018-04-02T06:02:45.010Z,37.30
2018-04-02T06:03:45.540Z,39.60
2018-04-02T06:04:44.131Z,37.00
2018-04-02T06:05:44.500Z,36.00
2018-04-02T06:06:43.885Z,37.20
2018-04-02T06:07:44.559Z,36.60
2018-04-02T06:08:44.078Z,38.20
2018-04-02T06:09:44.387Z,39.00
2018-04-02T06:11:05.482Z,39.40
2018-04-02T06:12:06.255Z,36.20
2018-04-02T06:13:05.992Z,40.80
2018-04-02T06:14:05.578Z,37.60
2018-04-02T06:15:27.768Z,40.50
2018-04-02T06:16:28.254Z,37.10
2018-04-02T06:17:27.890Z,39.10
2018-04-02T06:18:28.380Z,37.00
2018-04-02T06:19:27.925Z,38.40
2018-04-02T06:20:28.671Z,37.10
2018-04-02T06:21:28.084Z,37.20
2018-04-02T06:22:28.577Z,36.90
2018-04-02T06:23:28.093Z,38.90
2018-04-02T06:24:28.524Z,34.50
2018-04-02T06:25:48.708Z,36.20
2018-04-02T06:26:49.456Z,35.60
2018-04-02T06:27:49.410Z,34.40
2018-04-02T06:28:49.160Z,38.90
2018-04-02T06:29:49.120Z,37.80
2018-04-02T06:30:48.882Z,38.40
2018-04-02T06:31:49.786Z,36.90
2018-04-02T06:32:49.169Z,38.00
2018-04-02T06:34:09.660Z,36.30
2018-04-02T06:35:31.698Z,36.20
2018-04-02T06:36:53.740Z,37.40
2018-04-02T06:37:54.182Z,36.50
2018-04-02T06:38:54.805Z,39.50
2018-04-02T06:39:54.214Z,38.20
2018-04-02T06:40:53.770Z,39.10
2018-04-02T06:41:54.333Z,36.40
2018-04-02T06:42:53.672Z,36.20
2018-04-02T06:43:54.401Z,37.20
2018-04-02T06:44:53.936Z,34.80
2018-04-02T06:45:54.805Z,35.80
2018-04-02T06:46:54.446Z,34.20
2018-04-02T06:47:53.869Z,39.10
2018-04-02T06:48:54.740Z,36.50
2018-04-02T06:49:55.212Z,37.10
2018-04-02T06:50:53.845Z,39.80
2018-04-02T06:51:54.677Z,35.80
2018-04-02T06:52:54.647Z,37.80
2018-04-02T06:53:54.366Z,36.10
2018-04-02T06:54:54.201Z,41.10
2018-04-02T06:55:53.624Z,38.30
2018-04-02T06:56:54.487Z,34.90
2018-04-02T06:57:54.395Z,39.70
2018-04-02T06:58:54.059Z,38.10
2018-04-02T07:00:16.185Z,37.30
2018-04-02T07:01:16.615Z,39.20
2018-04-02T07:02:16.648Z,38.30
2018-04-02T07:03:16.454Z,42.50
2018-04-02T07:04:17.231Z,39.20
2018-04-02T07:05:17.113Z,43.70
2018-04-02T07:06:17.041Z,40.90
2018-04-02T07:07:17.002Z,42.00
2018-04-02T07:08:16.328Z,45.50
2018-04-02T07:09:16.719Z,42.80
2018-04-02T07:10:17.113Z,47.20
2018-04-02T07:11:19.905Z,51.30
2018-04-02T07:12:16.770Z,53.30
2018-04-02T07:13:16.579Z,49.50
2018-04-02T07:14:16.067Z,49.80
2018-04-02T07:15:37.499Z,57.50
2018-04-02T07:16:37.961Z,56.60
2018-04-02T07:17:38.964Z,58.20
2018-04-02T07:18:37.697Z,60.10
2018-04-02T07:19:38.478Z,60.10
2018-04-02T07:20:38.334Z,57.40
2018-04-02T07:21:37.888Z,61.00
2018-04-02T07:22:38.538Z,61.10
2018-04-02T07:23:38.032Z,62.70
2018-04-02T07:24:38.440Z,63.70
2018-04-02T07:25:37.893Z,57.10
2018-04-02T07:26:38.582Z,61.50
2018-04-02T07:27:59.564Z,63.60
2018-04-02T07:29:21.859Z,63.10
2018-04-02T07:30:22.323Z,62.70
2018-04-02T07:31:22.132Z,64.80
2018-04-02T07:32:21.919Z,62.60
2018-04-02T07:33:21.756Z,62.90
2018-04-02T07:34:22.653Z,67.60
2018-04-02T07:35:22.675Z,67.50
2018-04-02T07:36:22.756Z,66.60
2018-04-02T07:37:22.491Z,63.90
2018-04-02T07:38:22.362Z,64.70
2018-04-02T07:39:22.043Z,71.30
2018-04-02T07:40:21.696Z,68.20
2018-04-02T07:41:43.795Z,69.80
2018-04-02T07:42:44.837Z,71.30
2018-04-02T07:43:44.882Z,74.30
2018-04-02T07:44:44.481Z,81.10
2018-04-02T07:45:43.967Z,71.20
2018-04-02T07:46:43.620Z,72.10
2018-04-02T07:47:44.079Z,70.80
2018-04-02T07:48:43.770Z,70.90
2018-04-02T07:49:44.770Z,72.50
2018-04-02T07:50:44.775Z,78.20
2018-04-02T07:51:44.440Z,76.40
2018-04-02T07:52:43.907Z,75.90
2018-04-02T07:53:44.968Z,75.20
2018-04-02T07:55:04.869Z,79.60
2018-04-02T07:56:04.331Z,74.80
2018-04-02T07:57:05.375Z,79.20
2018-04-02T07:58:05.150Z,80.90
2018-04-02T07:59:04.745Z,78.30
2018-04-02T08:00:05.200Z,82.80
2018-04-02T08:01:26.018Z,81.70
2018-04-02T08:02:26.699Z,82.90
2018-04-02T08:03:47.694Z,82.00
2018-04-02T08:04:48.634Z,78.50
2018-04-02T08:05:48.364Z,76.90
2018-04-02T08:06:48.127Z,81.50
2018-04-02T08:07:48.041Z,76.20
2018-04-02T08:08:47.940Z,80.80
2018-04-02T08:09:48.836Z,81.50
2018-04-02T08:10:48.649Z,78.10
2018-04-02T08:11:49.089Z,82.60
2018-04-02T08:12:47.806Z,80.70
2018-04-02T08:13:48.413Z,79.30
2018-04-02T08:14:48.312Z,79.40
2018-04-02T08:15:48.005Z,82.20
2018-04-02T08:16:47.607Z,82.30
2018-04-02T08:17:48.088Z,81.60
2018-04-02T08:18:47.914Z,85.30
2018-04-02T08:19:48.811Z,79.50
2018-04-02T08:20:48.487Z,89.00
2018-04-02T08:21:48.420Z,84.40
2018-04-02T08:23:08.554Z,77.80
2018-04-02T08:24:30.766Z,82.60
2018-04-02T08:25:31.963Z,83.00
2018-04-02T08:26:31.363Z,83.00
2018-04-02T08:27:30.727Z,85.70
2018-04-02T08:28:31.714Z,85.70
2018-04-02T08:29:31.737Z,84.70
2018-04-02T08:30:31.818Z,90.10
2018-04-02T08:31:31.414Z,90.90
2018-04-02T08:32:51.737Z,83.20
2018-04-02T08:33:52.351Z,86.70
2018-04-02T08:34:52.311Z,86.10
2018-04-02T08:35:52.305Z,82.90
2018-04-02T08:36:52.256Z,85.80
2018-04-02T08:37:51.801Z,80.00
2018-04-02T08:38:52.829Z,79.40
2018-04-02T08:39:52.679Z,83.40
2018-04-02T08:40:52.575Z,86.20
2018-04-02T08:41:52.444Z,83.60
2018-04-02T08:43:33.035Z,87.80
2018-04-02T08:44:33.943Z,84.30
2018-04-02T08:45:33.430Z,84.20
2018-04-02T08:46:33.490Z,88.30
2018-04-02T08:47:33.479Z,84.60
2018-04-02T08:48:33.375Z,93.00
2018-04-02T08:49:54.325Z,83.80
2018-04-02T08:50:54.880Z,88.80
2018-04-02T08:51:54.701Z,86.30
2018-04-02T08:52:55.628Z,84.10
2018-04-02T08:54:16.499Z,91.20
2018-04-02T08:55:38.617Z,95.60
2018-04-02T08:56:39.565Z,91.20
2018-04-02T08:57:39.095Z,94.40
2018-04-02T08:58:38.898Z,93.10
2018-04-02T08:59:38.829Z,93.80
2018-04-02T09:00:38.565Z,97.30
2018-04-02T09:01:39.577Z,99.30
2018-04-02T09:02:39.237Z,89.10
2018-04-02T09:03:39.246Z,88.10
2018-04-02T09:04:38.862Z,91.00
2018-04-02T09:05:39.013Z,88.90
2018-04-02T09:06:39.188Z,94.00
2018-04-02T09:07:59.420Z,90.40
2018-04-02T09:09:42.232Z,90.90
2018-04-02T09:10:42.653Z,88.50
2018-04-02T09:11:42.662Z,94.70
2018-04-02T09:12:42.660Z,93.00
2018-04-02T09:13:42.286Z,91.40
2018-04-02T09:14:42.387Z,90.60
2018-04-02T09:15:41.777Z,92.70
2018-04-02T09:16:42.904Z,92.30
2018-04-02T09:17:42.619Z,93.00
2018-04-02T09:18:42.601Z,93.60
2018-04-02T09:19:42.637Z,98.60
2018-04-02T09:20:42.046Z,98.90
2018-04-02T09:22:03.582Z,96.40
2018-04-02T09:23:04.469Z,90.70
2018-04-02T09:24:04.596Z,96.60
2018-04-02T09:25:26.138Z,95.60
2018-04-02T09:26:26.008Z,90.40
2018-04-02T09:27:26.180Z,87.80
2018-04-02T09:28:26.382Z,100.40
2018-04-02T09:29:25.986Z,98.40
2018-04-02T09:30:25.654Z,97.60
2018-04-02T09:31:26.107Z,98.60
2018-04-02T09:32:26.185Z,97.50
2018-04-02T09:33:26.229Z,93.70
2018-04-02T09:34:25.949Z,95.30
2018-04-02T09:35:25.745Z,88.70
2018-04-02T09:36:26.527Z,88.00
2018-04-02T09:37:26.111Z,94.50
2018-04-02T09:38:25.753Z,91.60
2018-04-02T09:39:46.779Z,86.70
2018-04-02T09:40:47.838Z,88.70
2018-04-02T09:41:46.569Z,85.90
2018-04-02T09:42:47.675Z,87.90
2018-04-02T09:43:47.440Z,93.40
2018-04-02T09:44:47.472Z,87.00
2018-04-02T09:45:47.182Z,92.10
2018-04-02T09:46:47.109Z,84.20
2018-04-02T09:47:46.691Z,87.60
2018-04-02T09:48:46.785Z,85.10
2018-04-02T09:49:47.296Z,92.30
2018-04-02T09:50:47.225Z,86.60
2018-04-02T09:51:46.791Z,87.40
2018-04-02T09:52:46.474Z,87.30
2018-04-02T09:53:47.125Z,90.00
2018-04-02T09:54:46.855Z,87.60
2018-04-02T09:56:07.453Z,88.30
2018-04-02T09:57:29.943Z,82.70
2018-04-02T09:58:30.118Z,75.60
2018-04-02T09:59:29.884Z,78.60
2018-04-02T10:00:29.995Z,79.90
2018-04-02T10:01:50.920Z,77.50
2018-04-02T10:03:33.465Z,80.20
2018-04-02T10:04:56.225Z,81.10
2018-04-02T10:05:56.062Z,79.60
2018-04-02T10:06:56.920Z,79.10
2018-04-02T10:07:56.940Z,80.60
2018-04-02T10:08:56.790Z,83.40
2018-04-02T10:09:56.670Z,73.20
2018-04-02T10:10:56.715Z,78.40
2018-04-02T10:11:56.787Z,77.70
2018-04-02T10:12:56.802Z,76.00
2018-04-02T10:13:56.703Z,83.40
2018-04-02T10:14:56.223Z,81.70
2018-04-02T10:16:38.413Z,75.40
2018-04-02T10:17:38.952Z,77.00
2018-04-02T10:18:59.887Z,67.00
2018-04-02T10:19:59.969Z,63.60
2018-04-02T10:20:59.652Z,58.70
2018-04-02T10:22:00.101Z,65.70
2018-04-02T10:22:59.981Z,64.10
2018-04-02T10:24:00.144Z,58.90
2018-04-02T10:24:59.953Z,63.10
2018-04-02T10:26:20.851Z,58.40
2018-04-02T10:27:21.681Z,64.70
2018-04-02T10:28:21.516Z,60.60
2018-04-02T10:29:42.861Z,65.70
2018-04-02T10:30:43.045Z,63.40
2018-04-02T10:31:43.156Z,72.40
2018-04-02T10:32:42.819Z,64.60
2018-04-02T10:33:42.608Z,62.70
2018-04-02T10:34:43.805Z,67.10
2018-04-02T10:35:45.458Z,66.20
2018-04-02T10:36:43.565Z,61.00
2018-04-02T10:37:43.811Z,60.10
2018-04-02T10:38:44.938Z,58.20
2018-04-02T10:39:42.706Z,56.30
2018-04-02T10:40:44.914Z,60.80
2018-04-02T10:42:24.757Z,61.70
2018-04-02T10:43:24.681Z,60.70
2018-04-02T10:44:24.921Z,62.30
2018-04-02T10:45:46.598Z,56.50
2018-04-02T10:46:47.632Z,54.90
2018-04-02T10:47:47.474Z,59.50
2018-04-02T10:48:47.463Z,56.10
2018-04-02T10:49:47.190Z,50.40
2018-04-02T10:50:48.111Z,54.90
2018-04-02T10:52:07.755Z,53.70
2018-04-02T10:53:08.088Z,52.30
2018-04-02T10:54:08.290Z,52.80
2018-04-02T10:55:08.111Z,52.50
2018-04-02T10:56:07.791Z,49.90
2018-04-02T10:57:30.234Z,51.00
2018-04-02T10:58:31.614Z,49.90
2018-04-02T10:59:30.151Z,49.50
2018-04-02T11:00:31.790Z,44.20
2018-04-02T11:01:52.254Z,45.20
2018-04-02T11:02:52.467Z,42.10
2018-04-02T11:03:58.138Z,44.70
2018-04-02T11:04:52.305Z,45.50
2018-04-02T11:05:52.505Z,47.70
2018-04-02T11:06:52.391Z,45.40
2018-04-02T11:07:52.442Z,46.70
2018-04-02T11:08:52.207Z,44.90
2018-04-02T11:09:51.937Z,46.30
2018-04-02T11:10:52.900Z,45.30
2018-04-02T11:11:52.990Z,45.70
2018-04-02T11:12:52.222Z,48.10
2018-04-02T11:13:52.429Z,45.00
2018-04-02T11:14:52.216Z,46.90
2018-04-02T11:15:52.002Z,45.70
2018-04-02T11:16:51.615Z,44.50
2018-04-02T11:17:52.574Z,45.10
2018-04-02T11:18:52.669Z,47.90
2018-04-02T11:19:52.792Z,48.60
2018-04-02T11:20:52.755Z,45.20
2018-04-02T11:21:52.366Z,46.20
2018-04-02T11:22:52.210Z,46.20
2018-04-02T11:23:52.420Z,49.60
2018-04-02T11:24:52.897Z,47.10
2018-04-02T11:25:53.063Z,46.10
2018-04-02T11:26:51.746Z,47.80
2018-04-02T11:27:52.709Z,45.60
2018-04-02T11:28:52.540Z,41.70
2018-04-02T11:29:52.658Z,43.50
2018-04-02T11:30:52.632Z,46.60
2018-04-02T11:31:52.671Z,46.40
2018-04-02T11:32:52.767Z,49.20
2018-04-02T11:33:52.566Z,52.40
2018-04-02T11:34:52.046Z,45.80
2018-04-02T11:35:51.629Z,46.60
2018-04-02T11:37:13.930Z,49.20
2018-04-02T11:38:14.019Z,46.80
2018-04-02T11:39:35.276Z,45.80
2018-04-02T11:40:35.771Z,46.40
2018-04-02T11:41:35.692Z,46.70
2018-04-02T11:42:57.654Z,46.60
2018-04-02T11:43:57.538Z,47.80
2018-04-02T11:44:57.173Z,46.30
2018-04-02T11:45:57.199Z,46.50
2018-04-02T11:46:57.363Z,49.10
2018-04-02T11:47:57.724Z,49.20
2018-04-02T11:48:57.650Z,45.40
2018-04-02T11:49:57.796Z,44.70
2018-04-02T11:50:58.212Z,43.60
2018-04-02T11:51:56.947Z,42.60
2018-04-02T11:53:18.489Z,44.20
2018-04-02T11:54:19.661Z,44.60
2018-04-02T11:55:20.805Z,44.70
2018-04-02T11:56:19.671Z,43.40
2018-04-02T11:57:18.596Z,39.60
2018-04-02T11:58:19.498Z,42.30
2018-04-02T11:59:19.406Z,42.20
2018-04-02T12:00:19.160Z,39.80
2018-04-02T12:01:19.342Z,36.30
2018-04-02T12:02:18.953Z,42.50
2018-04-02T12:03:19.018Z,42.50
2018-04-02T12:04:39.770Z,38.70
2018-04-02T12:05:40.650Z,39.60
2018-04-02T12:06:40.940Z,40.20
2018-04-02T12:08:01.027Z,40.70
2018-04-02T12:09:00.666Z,40.30
2018-04-02T12:10:01.310Z,41.20
2018-04-02T12:11:01.650Z,37.90
2018-04-02T12:12:01.686Z,35.40
2018-04-02T12:13:01.442Z,37.10
2018-04-02T12:14:01.318Z,37.70
2018-04-02T12:15:22.566Z,35.30
2018-04-02T12:16:23.117Z,35.80
2018-04-02T12:17:23.179Z,32.90
2018-04-02T12:18:22.908Z,37.10
2018-04-02T12:19:22.881Z,33.90
2018-04-02T12:21:04.622Z,33.60
2018-04-02T12:22:04.691Z,35.40
2018-04-02T12:23:04.323Z,36.10
2018-04-02T12:24:26.856Z,33.20
2018-04-02T12:25:27.965Z,31.50
2018-04-02T12:26:49.413Z,30.60
2018-04-02T12:27:49.685Z,32.80
2018-04-02T12:28:49.434Z,30.60
2018-04-02T12:29:49.777Z,33.70
2018-04-02T12:30:49.753Z,31.10
2018-04-02T12:31:49.523Z,34.60
2018-04-02T12:32:49.608Z,31.20
2018-04-02T12:33:50.149Z,32.40
2018-04-02T12:34:49.885Z,34.20
2018-04-02T12:35:49.871Z,32.80
2018-04-02T12:37:11.096Z,31.80
2018-04-02T12:38:11.982Z,31.70
2018-04-02T12:39:11.667Z,33.00
2018-04-02T12:40:11.544Z,31.50
2018-04-02T12:41:12.204Z,30.80
2018-04-02T12:42:33.198Z,30.80
2018-04-02T12:43:33.494Z,32.80
2018-04-02T12:44:54.853Z,30.90
2018-04-02T12:45:55.232Z,32.10
2018-04-02T12:47:37.813Z,34.50
2018-04-02T12:48:37.765Z,29.90
2018-04-02T12:49:37.692Z,31.10
2018-04-02T12:50:37.591Z,30.40
2018-04-02T12:51:37.671Z,33.80
2018-04-02T12:52:38.181Z,34.90
2018-04-02T12:53:38.761Z,30.10
2018-04-02T12:54:37.797Z,35.40
2018-04-02T12:55:38.041Z,34.20
2018-04-02T12:56:59.999Z,32.50
2018-04-02T12:58:01.109Z,30.80
2018-04-02T12:59:01.763Z,36.70
2018-04-02T13:00:00.926Z,30.40
2018-04-02T13:01:01.272Z,28.20
2018-04-02T13:02:00.319Z,28.40
2018-04-02T13:03:00.160Z,29.70
2018-04-02T13:04:00.237Z,25.50
2018-04-02T13:06:02.823Z,30.00
2018-04-02T13:07:03.797Z,29.00
2018-04-02T13:08:04.242Z,29.70
2018-04-02T13:09:03.273Z,27.90
2018-04-02T13:10:03.189Z,28.20
2018-04-02T13:11:03.432Z,31.40
2018-04-02T13:12:03.594Z,30.30
2018-04-02T13:13:03.534Z,30.30
2018-04-02T13:14:03.894Z,29.90
2018-04-02T13:15:26.362Z,25.80
2018-04-02T13:16:26.458Z,29.60
2018-04-02T13:17:26.266Z,27.30
2018-04-02T13:18:47.988Z,25.40
2018-04-02T13:19:49.004Z,27.90
2018-04-02T13:20:48.181Z,25.90
2018-04-02T13:21:48.181Z,28.50
2018-04-02T13:23:31.166Z,25.90
2018-04-02T13:24:31.504Z,24.60
2018-04-02T13:25:31.525Z,24.10
2018-04-02T13:26:31.744Z,28.50
2018-04-02T13:27:31.696Z,24.20
2018-04-02T13:28:30.723Z,24.30
2018-04-02T13:29:53.650Z,22.40
2018-04-02T13:30:53.826Z,24.70
2018-04-02T13:32:15.070Z,25.30
2018-04-02T13:33:15.994Z,27.70
2018-04-02T13:34:16.286Z,27.80
2018-04-02T13:35:36.834Z,22.50
2018-04-02T13:36:37.894Z,23.90